EGNR

Hawarden Airport

Hawarden, United Kingdom
METAR EGNR 181620Z VRB01KT 9999 FEW018 05/04 Q1031
Observed Flight Rules
Dec-18 @ 16:20 UTC (28 minutes ago) Visual Flight Rules
Wind Visibility Clouds
Variable at 1 knots 10,000+ meters
  • Few at 1,800' AGL
Temperatures Readings
Current 5°C / 41°F
Dewpoint 4°C / 39°F
Humidity 93%
Altimeter 30.44" Hg
Pressure 1031 hPa
Elevation 10
METAR EGNR 181620Z VRB01KT 9999 FEW018 05/04 Q1031
Observed Flight Rules
Dec-18 @ 16:20 UTC
(28 minutes ago)
VFR
Wind Visibility
Variable at 1 knots 10,000+ meters
Clouds
  • Few at 1,800' AGL
Temperature Dewpoint
5°C / 41°F 4°C / 39°F
Humidity Altimeter Pressure
93% 30.44" Hg 1031 hPa